Terminal Aerodrome Forecast
Issued by NWS

Home | Current Version | Previous Version | Text Only | Print | Product List | Glossary Off
Versions: 1 2 3 4 5 6 7 8 9 10 11 12 13 14 15 16 17 18 19 20 21 22 23 24 25 26 27 28 29 30 31 32 33 34 35
000 FTUS41 KBOX 210809 AAA TAFBED TAF AMD KBED 210809Z 2108/2206 00000KT 6SM BR SCT003 BKN100 TEMPO 2108/2111 BKN003 FM211100 00000KT 6SM BR BKN140 FM211200 VRB03KT P6SM BKN130 FM211800 07006KT P6SM BKN070 FM220200 00000KT P6SM BKN060=

USA.gov is the U.S. government's official web portal to all federal, state and local government web resources and services.